Terminal Aerodrome Forecast
Issued by NWS

Home | Current Version | Previous Version | Graphics & Text | Print | Product List | Glossary On
Versions: 1 2 3 4 5 6 7 8 9 10 11 12 13 14 15 16 17
000
FTUS43 KMPX 130500 RRA
TAFAXN
TAF
KAXN 130541Z 1306/1406 02011KT P6SM BKN020
     FM130800 35013G21KT P6SM BKN020
     FM131400 36018G25KT P6SM BKN015
     FM132000 35024G34KT P6SM SCT020 BKN040
     FM140200 35020G30KT P6SM BKN040=

USA.gov is the U.S. government's official web portal to all federal, state and local government web resources and services.